Kansai — JD3272 — position and weather

sailwx.info

Track history (hours):
 
Tides and Currents Weather Stations Pressure Air Temp Water Temp Dewpoint Dewpoint Depression Visibility Wind Speed Wind Dir Waves Ship Positions

Kansai

Last reported at 2016-Feb-05 11:33 UTC. Time now 2016-Feb-05 22:23 UTC.
Position N 35°04' E 139°40'.

Length 73 m; draft 4.2 m.

Type: Cargo ship. MMSI: 431003134.

Date/timePositionNaut miles runAvg speedWind from/ knotsBaromVisibWave heightAir tempDewpointWater temp
2016-Feb-05 11:33N 35°04' E 139°40'1211.6
2016-Feb-05 10:34N 35°14' E 139°46'1010.4
2016-Feb-05 09:34N 35°24' E 139°43'1111.2
2016-Feb-05 08:34N 35°32' E 139°53'9 9.1
2016-Feb-05 07:33N 35°41' E 139°58'0 0.0
2016-Feb-05 06:34N 35°41' E 139°58'0 0.0
2016-Feb-05 05:34N 35°41' E 139°58'0 0.0
2016-Feb-05 04:33N 35°41' E 139°58'0 0.0
2016-Feb-05 03:33N 35°41' E 139°58'0 0.0
2016-Feb-05 02:34N 35°41' E 139°58'0 0.0
2016-Feb-05 01:34N 35°41' E 139°58'0 0.0
2016-Feb-05 00:32N 35°41' E 139°58'5 5.2
2016-Feb-04 23:33N 35°36' E 139°57'1010.3
2016-Feb-04 22:33N 35°27' E 139°50'10 9.8
2016-Feb-04 21:33N 35°18' E 139°44'246 8.8
2016-Feb-03 17:33N 34°02' E 134°60'1110.7
2016-Feb-03 16:33N 34°13' E 134°59'1110.9
2016-Feb-03 15:33N 34°24' E 135°00'1111.0
2016-Feb-03 14:33N 34°35' E 135°03'1211.0
2016-Feb-03 13:26N 34°40' E 134°50'3 0.1
2016-Feb-02 05:27N 34°38' E 134°52'1011.4
2016-Feb-02 04:33N 34°36' E 135°04'  
Track history (hours):
 
Tides and Currents Weather Stations Pressure Air Temp Water Temp Dewpoint Dewpoint Depression Visibility Wind Speed Wind Dir Waves Ship Positions

Kansai

Last reported at 2016-Feb-05 11:33 UTC. Time now 2016-Feb-05 22:23 UTC.
Position N 35°04' E 139°40'.

Length 73 m; draft 4.2 m.

Type: Cargo ship. MMSI: 431003134.

Date/timePositionNaut miles runAvg speedWind from/ knotsBaromVisibWave heightAir tempDewpointWater temp
2016-Feb-05 11:33N 35°04' E 139°40'1211.6
2016-Feb-05 10:34N 35°14' E 139°46'1010.4
2016-Feb-05 09:34N 35°24' E 139°43'1111.2
2016-Feb-05 08:34N 35°32' E 139°53'9 9.1
2016-Feb-05 07:33N 35°41' E 139°58'0 0.0
2016-Feb-05 06:34N 35°41' E 139°58'0 0.0
2016-Feb-05 05:34N 35°41' E 139°58'0 0.0
2016-Feb-05 04:33N 35°41' E 139°58'0 0.0
2016-Feb-05 03:33N 35°41' E 139°58'0 0.0
2016-Feb-05 02:34N 35°41' E 139°58'0 0.0
2016-Feb-05 01:34N 35°41' E 139°58'0 0.0
2016-Feb-05 00:32N 35°41' E 139°58'5 5.2
2016-Feb-04 23:33N 35°36' E 139°57'1010.3
2016-Feb-04 22:33N 35°27' E 139°50'10 9.8
2016-Feb-04 21:33N 35°18' E 139°44'246 8.8
2016-Feb-03 17:33N 34°02' E 134°60'1110.7
2016-Feb-03 16:33N 34°13' E 134°59'1110.9
2016-Feb-03 15:33N 34°24' E 135°00'1111.0
2016-Feb-03 14:33N 34°35' E 135°03'1211.0
2016-Feb-03 13:26N 34°40' E 134°50'3 0.1
2016-Feb-02 05:27N 34°38' E 134°52'1011.4
2016-Feb-02 04:33N 34°36' E 135°04'  

Dump ship's entire track history